createdAt,value
2022-09-05T00:03:13.993Z,101936.19
2022-09-05T00:06:17.787Z,101931.91
2022-09-05T00:09:38.715Z,101937.41
2022-09-05T00:12:41.206Z,101922.38
2022-09-05T00:15:48.462Z,101930.56
2022-09-05T00:24:19.942Z,101930.66
2022-09-05T00:24:28.428Z,101926.38
2022-09-05T00:26:02.893Z,101920.25
2022-09-05T00:29:04.575Z,101913.28
2022-09-05T00:32:17.451Z,101914.13
2022-09-05T00:35:34.345Z,101915.00
2022-09-05T00:38:41.829Z,101917.69
2022-09-05T00:41:46.897Z,101918.53
2022-09-05T00:44:55.257Z,101914.88
2022-09-05T00:48:08.232Z,101908.53
2022-09-05T00:51:09.763Z,101912.19
2022-09-05T00:54:40.488Z,101912.19
2022-09-05T00:58:09.257Z,101912.19
2022-09-05T01:01:25.356Z,101910.34
2022-09-05T01:05:06.500Z,101910.44
2022-09-05T01:08:40.967Z,101906.94
2022-09-05T01:12:08.044Z,101913.28
2022-09-05T01:15:36.076Z,101907.16
2022-09-05T01:18:49.804Z,101909.13
2022-09-05T01:22:07.454Z,101914.50
2022-09-05T01:25:38.395Z,101910.19
2022-09-05T01:29:16.103Z,101910.19
2022-09-05T01:32:25.644Z,101908.47
2022-09-05T01:35:59.191Z,101907.72
2022-09-05T01:40:15.904Z,101909.75
2022-09-05T01:43:25.763Z,101901.94
2022-09-05T01:46:37.038Z,101906.53
2022-09-05T01:50:06.661Z,101907.63
2022-09-05T01:53:47.635Z,101897.13
2022-09-05T01:56:52.180Z,101891.00
2022-09-05T02:00:14.436Z,101899.19
2022-09-05T02:03:28.850Z,101899.41
2022-09-05T02:06:36.501Z,101897.81
2022-09-05T02:10:07.306Z,101899.63
2022-09-05T02:13:27.572Z,101890.81
2022-09-05T02:16:42.256Z,101890.09
2022-09-05T02:20:11.241Z,101892.03
2022-09-05T02:23:40.178Z,101892.16
2022-09-05T02:26:50.726Z,101893.97
2022-09-05T02:30:25.694Z,101898.63
2022-09-05T02:33:32.593Z,101898.72
2022-09-05T02:36:44.030Z,101893.34
2022-09-05T02:45:00.718Z,101889.91
2022-09-05T02:45:15.180Z,101894.63
2022-09-05T02:47:22.418Z,101889.38
2022-09-05T02:55:28.973Z,101891.34
2022-09-05T02:57:42.482Z,101886.91
2022-09-05T02:59:08.193Z,101886.19
2022-09-05T03:02:25.779Z,101890.91
2022-09-05T03:05:35.995Z,101883.94
2022-09-05T03:08:49.596Z,101882.31
2022-09-05T03:12:28.375Z,101882.44
2022-09-05T03:16:06.605Z,101877.28
2022-09-05T03:19:33.472Z,101885.47
2022-09-05T03:22:56.639Z,101881.06
2022-09-05T03:26:27.410Z,101881.19
2022-09-05T03:29:28.975Z,101879.47
2022-09-05T03:32:43.011Z,101886.56
2022-09-05T03:36:03.095Z,101885.69
2022-09-05T03:39:23.331Z,101884.00
2022-09-05T03:42:48.313Z,101892.06
2022-09-05T03:46:00.285Z,101890.31
2022-09-05T03:50:35.866Z,101886.78
2022-09-05T03:57:11.163Z,101896.66
2022-09-05T03:57:20.407Z,101894.97
2022-09-05T04:00:22.155Z,101890.66
2022-09-05T04:08:14.481Z,101894.31
2022-09-05T04:08:20.760Z,101890.03
2022-09-05T04:10:40.795Z,101896.47
2022-09-05T04:13:45.447Z,101894.84
2022-09-05T04:16:52.658Z,101903.91
2022-09-05T04:20:11.862Z,101904.84
2022-09-05T04:23:19.505Z,101912.06
2022-09-05T04:26:54.901Z,101910.44
2022-09-05T04:30:01.952Z,101915.06
2022-09-05T04:33:19.835Z,101923.13
2022-09-05T04:36:33.060Z,101923.25
2022-09-05T04:39:36.004Z,101925.16
2022-09-05T04:42:39.561Z,101920.00
2022-09-05T04:46:06.522Z,101919.13
2022-09-05T04:49:20.465Z,101918.38
2022-09-05T04:52:41.149Z,101917.66
2022-09-05T04:55:50.374Z,101923.22
2022-09-05T05:01:14.483Z,101931.47
2022-09-05T05:06:14.282Z,101927.84
2022-09-05T05:06:31.499Z,101929.00
2022-09-05T05:09:28.854Z,101930.63
2022-09-05T05:18:02.615Z,101941.91
2022-09-05T05:18:04.037Z,101941.19
2022-09-05T05:20:42.319Z,101937.50
2022-09-05T05:23:34.952Z,101940.97
2022-09-05T05:26:45.471Z,101940.97
2022-09-05T05:29:53.101Z,101932.91
2022-09-05T05:32:55.902Z,101937.28
2022-09-05T05:36:01.295Z,101933.66
2022-09-05T05:39:12.483Z,101939.03
2022-09-05T05:42:23.219Z,101947.16
2022-09-05T05:45:24.840Z,101942.66
2022-09-05T05:48:38.080Z,101951.59
2022-09-05T05:52:02.284Z,101952.31
2022-09-05T05:55:51.339Z,101958.44
2022-09-05T05:58:54.451Z,101958.56
2022-09-05T06:01:58.912Z,101956.84
2022-09-05T06:05:38.594Z,101964.88
2022-09-05T06:14:03.867Z,101967.56
2022-09-05T06:14:57.885Z,101961.13
2022-09-05T06:16:43.007Z,101958.34
2022-09-05T06:22:06.197Z,101967.03
2022-09-05T06:23:36.642Z,101966.72
2022-09-05T06:26:44.737Z,101968.22
2022-09-05T06:30:02.038Z,101963.25
2022-09-05T06:33:41.033Z,101966.25
2022-09-05T06:37:19.957Z,101968.41
2022-09-05T06:40:47.819Z,101972.34
2022-09-05T06:44:31.044Z,101965.56
2022-09-05T06:47:36.798Z,101962.31
2022-09-05T06:51:09.153Z,101970.66
2022-09-05T06:54:32.576Z,101970.22
2022-09-05T06:57:50.656Z,101965.47
2022-09-05T07:00:56.142Z,101964.19
2022-09-05T07:05:14.729Z,101966.66
2022-09-05T07:07:57.137Z,101970.97
2022-09-05T07:11:25.290Z,101967.19
2022-09-05T07:14:30.950Z,101974.78
2022-09-05T07:18:13.716Z,101977.25
2022-09-05T07:21:30.976Z,101982.91
2022-09-05T07:24:54.471Z,101986.00
2022-09-05T07:28:29.273Z,101974.66
2022-09-05T07:31:37.732Z,101978.72
2022-09-05T07:34:39.911Z,101979.00
2022-09-05T07:37:45.061Z,101988.09
2022-09-05T07:40:59.599Z,101985.78
2022-09-05T07:44:11.037Z,101981.75
2022-09-05T07:47:23.135Z,101989.50
2022-09-05T07:52:15.632Z,101990.09
2022-09-05T07:57:10.788Z,101984.25
2022-09-05T07:57:30.796Z,101986.13
2022-09-05T08:00:35.839Z,101987.13
2022-09-05T08:03:37.542Z,101991.03
2022-09-05T08:07:47.771Z,101985.16
2022-09-05T08:10:15.929Z,101985.31
2022-09-05T08:13:23.939Z,101984.41
2022-09-05T08:16:30.531Z,101981.00
2022-09-05T08:19:57.867Z,101986.66
2022-09-05T08:23:13.114Z,101978.31
2022-09-05T08:26:14.664Z,101975.25
2022-09-05T08:29:39.825Z,101973.75
2022-09-05T08:32:49.305Z,101980.88
2022-09-05T08:36:35.122Z,101985.25
2022-09-05T08:39:36.893Z,101978.22
2022-09-05T08:46:23.510Z,101977.34
2022-09-05T08:46:42.372Z,101977.41
2022-09-05T08:49:49.628Z,101969.66
2022-09-05T08:53:03.875Z,101973.72
2022-09-05T08:56:35.602Z,101965.84
2022-09-05T09:00:20.624Z,101963.22
2022-09-05T09:03:19.339Z,101963.88
2022-09-05T09:06:30.954Z,101958.03
2022-09-05T09:09:36.504Z,101961.09
2022-09-05T09:13:12.316Z,101953.25
2022-09-05T09:17:07.353Z,101945.38
2022-09-05T09:20:15.248Z,101944.00
2022-09-05T09:23:53.488Z,101945.16
2022-09-05T09:27:06.471Z,101939.81
2022-09-05T09:30:08.637Z,101941.41
2022-09-05T09:33:16.819Z,101935.88
2022-09-05T09:36:42.767Z,101931.91
2022-09-05T09:40:23.342Z,101924.75
2022-09-05T09:44:06.516Z,101933.44
2022-09-05T09:47:14.653Z,101931.53
2022-09-05T09:50:27.962Z,101939.75
2022-09-05T09:53:36.948Z,101932.59
2022-09-05T09:57:07.959Z,101937.06
2022-09-05T10:00:24.135Z,101933.56
2022-09-05T10:09:38.370Z,101936.94
2022-09-05T10:10:49.525Z,101928.44
2022-09-05T10:11:37.670Z,101921.63
2022-09-05T10:14:47.567Z,101918.94
2022-09-05T10:18:16.708Z,101921.63
2022-09-05T10:26:08.534Z,101916.97
2022-09-05T10:29:37.829Z,101908.25
2022-09-05T10:35:11.051Z,101922.03
2022-09-05T10:36:27.050Z,101912.94
2022-09-05T10:39:30.782Z,101911.41
2022-09-05T10:42:51.546Z,101902.31
2022-09-05T10:46:08.564Z,101915.97
2022-09-05T10:49:13.776Z,101908.41
2022-09-05T10:52:34.662Z,101904.38
2022-09-05T10:55:52.403Z,101904.59
2022-09-05T11:00:32.601Z,101895.41
2022-09-05T11:02:38.405Z,101885.09
2022-09-05T11:05:53.037Z,101888.53
2022-09-05T11:09:18.863Z,101888.91
2022-09-05T11:12:47.414Z,101880.75
2022-09-05T11:16:18.868Z,101876.16
2022-09-05T11:19:22.369Z,101875.31
2022-09-05T11:22:27.110Z,101874.81
2022-09-05T11:25:39.611Z,101871.41
2022-09-05T11:29:00.013Z,101876.34
2022-09-05T11:36:42.943Z,101868.97
2022-09-05T11:40:05.986Z,101863.84
2022-09-05T11:40:31.080Z,101871.50
2022-09-05T11:43:34.762Z,101864.31
2022-09-05T11:47:27.218Z,101865.31
2022-09-05T11:50:44.113Z,101869.03
2022-09-05T11:54:38.083Z,101868.31
2022-09-05T11:58:44.273Z,101863.53
2022-09-05T12:01:45.602Z,101866.06
2022-09-05T12:05:49.349Z,101868.28
2022-09-05T12:08:55.648Z,101858.59
2022-09-05T12:12:41.452Z,101862.66
2022-09-05T12:16:07.218Z,101857.84
2022-09-05T12:19:27.247Z,101860.91
2022-09-05T12:22:33.425Z,101862.94
2022-09-05T12:27:44.258Z,101863.09
2022-09-05T12:29:34.931Z,101863.41
2022-09-05T12:35:57.032Z,101851.38
2022-09-05T12:40:54.996Z,101851.53
2022-09-05T12:40:55.639Z,101848.41
2022-09-05T12:44:36.402Z,101845.53
2022-09-05T12:46:45.712Z,101851.44
2022-09-05T12:50:15.043Z,101845.47
2022-09-05T12:53:21.064Z,101847.44
2022-09-05T13:00:02.618Z,101844.00
2022-09-05T13:03:01.950Z,101835.91
2022-09-05T13:03:29.798Z,101834.91
2022-09-05T13:06:39.295Z,101828.25
2022-09-05T13:11:03.737Z,101822.59
2022-09-05T13:15:02.800Z,101828.91
2022-09-05T13:16:35.481Z,101842.38
2022-09-05T13:19:51.267Z,101835.69
2022-09-05T13:22:53.709Z,101828.16
2022-09-05T13:26:08.261Z,101831.88
2022-09-05T13:29:15.402Z,101832.44
2022-09-05T13:38:01.529Z,101830.66
2022-09-05T13:38:12.463Z,101832.06
2022-09-05T13:39:37.952Z,101824.63
2022-09-05T13:42:45.206Z,101815.28
2022-09-05T13:46:25.668Z,101815.78
2022-09-05T13:49:37.230Z,101813.31
2022-09-05T13:52:47.656Z,101813.59
2022-09-05T13:55:54.804Z,101820.41
2022-09-05T13:59:11.343Z,101809.47
2022-09-05T14:06:45.493Z,101804.44
2022-09-05T14:09:55.149Z,101801.25
2022-09-05T14:13:04.307Z,101800.22
2022-09-05T14:16:11.856Z,101803.13
2022-09-05T14:19:40.739Z,101799.38
2022-09-05T14:22:53.761Z,101807.38
2022-09-05T14:26:01.131Z,101807.75
2022-09-05T14:29:26.318Z,101798.69
2022-09-05T14:37:38.824Z,101799.19
2022-09-05T14:37:54.321Z,101801.56
2022-09-05T14:40:33.074Z,101798.16
2022-09-05T14:43:43.602Z,101792.00
2022-09-05T14:47:32.333Z,101785.53
2022-09-05T14:51:00.275Z,101786.09
2022-09-05T15:02:41.493Z,101778.97
2022-09-05T15:02:50.547Z,101777.00
2022-09-05T15:04:44.417Z,101775.81
2022-09-05T15:07:49.234Z,101780.63
2022-09-05T15:12:15.503Z,101771.78
2022-09-05T15:14:19.940Z,101771.13
2022-09-05T15:17:24.517Z,101769.22
2022-09-05T15:20:35.731Z,101774.66
2022-09-05T15:23:38.281Z,101763.75
2022-09-05T15:26:56.532Z,101768.84
2022-09-05T15:29:58.152Z,101759.78
2022-09-05T15:33:25.571Z,101765.47
2022-09-05T15:36:32.596Z,101760.19
2022-09-05T15:39:34.217Z,101763.66
2022-09-05T15:42:39.049Z,101767.97
2022-09-05T15:45:40.728Z,101763.53
2022-09-05T15:48:43.727Z,101757.03
2022-09-05T15:51:56.916Z,101750.72
2022-09-05T15:55:13.937Z,101754.31
2022-09-05T15:58:18.407Z,101741.69
2022-09-05T16:01:59.245Z,101741.69
2022-09-05T16:10:30.274Z,101750.06
2022-09-05T16:10:41.145Z,101753.25
2022-09-05T16:12:14.320Z,101753.19
2022-09-05T16:16:55.067Z,101753.06
2022-09-05T16:23:20.767Z,101747.03
2022-09-05T16:23:38.179Z,101750.66
2022-09-05T16:25:48.552Z,101747.97
2022-09-05T16:28:56.688Z,101741.56
2022-09-05T16:32:05.512Z,101744.13
2022-09-05T16:35:10.927Z,101748.59
2022-09-05T16:38:49.555Z,101744.72
2022-09-05T16:42:00.004Z,101743.88
2022-09-05T16:45:14.564Z,101751.75
2022-09-05T16:48:36.267Z,101746.84
2022-09-05T16:51:52.856Z,101743.94
2022-09-05T16:55:05.922Z,101734.44
2022-09-05T16:58:16.417Z,101742.47
2022-09-05T17:01:33.248Z,101726.31
2022-09-05T17:05:02.974Z,101733.00
2022-09-05T17:08:36.453Z,101732.47
2022-09-05T17:11:55.959Z,101731.66
2022-09-05T17:15:13.536Z,101735.59
2022-09-05T17:18:24.239Z,101737.47
2022-09-05T17:23:07.894Z,101736.97
2022-09-05T17:29:27.413Z,101730.03
2022-09-05T17:30:39.120Z,101731.84
2022-09-05T17:32:19.064Z,101722.16
2022-09-05T17:36:02.600Z,101725.03
2022-09-05T17:39:20.740Z,101725.19
2022-09-05T17:43:00.984Z,101726.38
2022-09-05T17:46:46.224Z,101730.09
2022-09-05T17:49:47.920Z,101735.47
2022-09-05T17:53:25.103Z,101731.72
2022-09-05T17:56:32.229Z,101728.13
2022-09-05T17:59:33.860Z,101735.91
2022-09-05T18:02:53.808Z,101743.91
2022-09-05T18:06:03.657Z,101745.56
2022-09-05T18:09:11.888Z,101747.25
2022-09-05T18:16:11.081Z,101754.44
2022-09-05T18:19:32.487Z,101747.94
2022-09-05T18:22:40.708Z,101754.78
2022-09-05T18:26:20.885Z,101756.88
2022-09-05T18:29:57.200Z,101752.59
2022-09-05T18:32:54.269Z,101750.13
2022-09-05T18:36:18.637Z,101755.50
2022-09-05T18:39:27.741Z,101759.19
2022-09-05T18:42:33.978Z,101765.94
2022-09-05T18:45:38.254Z,101760.97
2022-09-05T18:50:21.392Z,101758.00
2022-09-05T18:52:32.972Z,101773.22
2022-09-05T18:56:11.461Z,101768.41
2022-09-05T18:59:15.576Z,101777.31
2022-09-05T19:02:50.043Z,101770.69
2022-09-05T19:06:34.345Z,101762.28
2022-09-05T19:09:27.313Z,101781.91
2022-09-05T19:12:35.043Z,101783.53
2022-09-05T19:15:49.886Z,101784.31
2022-09-05T19:19:09.984Z,101782.19
2022-09-05T19:23:08.392Z,101782.81
2022-09-05T19:25:40.600Z,101787.63
2022-09-05T19:36:44.016Z,101784.53
2022-09-05T19:37:05.766Z,101798.69
2022-09-05T19:37:06.620Z,101782.88
2022-09-05T19:44:56.906Z,101783.50
2022-09-05T19:47:39.847Z,101785.81
2022-09-05T19:47:44.915Z,101794.53
2022-09-05T19:49:09.754Z,101792.25
2022-09-05T19:52:16.410Z,101783.91
2022-09-05T19:55:24.262Z,101784.47
2022-09-05T19:58:26.011Z,101784.06
2022-09-05T20:01:28.484Z,101777.38
2022-09-05T20:04:52.855Z,101781.53
2022-09-05T20:07:57.929Z,101783.94
2022-09-05T20:11:05.343Z,101779.28
2022-09-05T20:14:25.096Z,101779.00
2022-09-05T20:17:34.471Z,101774.16
2022-09-05T20:20:36.109Z,101776.47
2022-09-05T20:23:43.617Z,101782.31
2022-09-05T20:26:47.256Z,101778.50
2022-09-05T20:30:02.960Z,101771.78
2022-09-05T20:33:21.989Z,101767.81
2022-09-05T20:43:17.172Z,101769.09
2022-09-05T20:43:20.493Z,101764.28
2022-09-05T20:44:01.678Z,101764.81
2022-09-05T20:52:04.279Z,101766.41
2022-09-05T20:54:20.951Z,101766.25
2022-09-05T20:54:28.445Z,101759.53
2022-09-05T20:57:17.114Z,101763.13
2022-09-05T21:00:23.755Z,101770.69
2022-09-05T21:03:36.886Z,101772.97
2022-09-05T21:06:41.594Z,101769.81
2022-09-05T21:10:07.344Z,101771.06
2022-09-05T21:13:09.347Z,101780.47
2022-09-05T21:16:16.528Z,101779.75
2022-09-05T21:19:28.857Z,101766.81
2022-09-05T21:22:44.224Z,101769.94
2022-09-05T21:25:53.813Z,101769.34
2022-09-05T21:29:07.568Z,101770.78
2022-09-05T21:32:13.672Z,101764.94
2022-09-05T21:35:35.328Z,101760.63
2022-09-05T21:38:42.972Z,101768.84
2022-09-05T21:41:48.894Z,101761.31
2022-09-05T21:47:35.580Z,101760.03
2022-09-05T21:48:24.398Z,101759.56
2022-09-05T21:51:28.131Z,101756.44
2022-09-05T21:59:16.087Z,101757.72
2022-09-05T21:59:18.251Z,101759.09
2022-09-05T22:01:13.353Z,101753.00
2022-09-05T22:04:15.349Z,101747.88
2022-09-05T22:07:27.364Z,101743.72
2022-09-05T22:10:52.344Z,101734.34
2022-09-05T22:13:57.003Z,101733.75
2022-09-05T22:16:58.880Z,101732.38
2022-09-05T22:20:03.022Z,101739.31
2022-09-05T22:23:04.800Z,101736.16
2022-09-05T22:26:06.842Z,101735.72
2022-09-05T22:29:09.701Z,101722.75
2022-09-05T22:32:11.340Z,101718.91
2022-09-05T22:35:27.283Z,101714.16
2022-09-05T22:38:30.502Z,101721.78
2022-09-05T22:41:32.315Z,101731.16
2022-09-05T22:44:33.916Z,101715.38
2022-09-05T22:47:35.476Z,101719.31
2022-09-05T22:50:37.939Z,101715.19
2022-09-05T22:53:39.543Z,101708.47
2022-09-05T22:56:41.301Z,101707.91
2022-09-05T22:59:42.892Z,101703.75
2022-09-05T23:02:47.870Z,101703.16
2022-09-05T23:05:51.897Z,101702.44
2022-09-05T23:08:53.485Z,101701.84
2022-09-05T23:11:55.053Z,101694.16
2022-09-05T23:14:56.661Z,101703.38
2022-09-05T23:17:59.628Z,101691.97
2022-09-05T23:21:03.284Z,101695.78
2022-09-05T23:24:05.173Z,101696.91
2022-09-05T23:27:06.741Z,101689.09
2022-09-05T23:30:09.604Z,101688.50
2022-09-05T23:33:11.159Z,101679.00
2022-09-05T23:36:14.112Z,101672.84
2022-09-05T23:39:15.743Z,101667.75
2022-09-05T23:42:17.481Z,101666.97
2022-09-05T23:45:19.498Z,101661.00
2022-09-05T23:48:21.777Z,101669.19
2022-09-05T23:51:23.336Z,101660.66
2022-09-05T23:54:24.917Z,101660.94
2022-09-05T23:57:26.532Z,101671.97
